createdAt,value
2017-10-26T00:00:21.971Z,92.57
2017-10-26T00:02:49.657Z,91.59
2017-10-26T00:05:17.332Z,91.64
2017-10-26T00:07:45.167Z,91.42
2017-10-26T00:10:12.964Z,91.37
2017-10-26T00:12:40.722Z,91.30
2017-10-26T00:15:08.491Z,91.17
2017-10-26T00:17:36.201Z,91.13
2017-10-26T00:20:03.896Z,91.50
2017-10-26T00:22:31.733Z,91.34
2017-10-26T00:24:59.444Z,91.80
2017-10-26T00:27:27.132Z,92.51
2017-10-26T00:29:54.876Z,91.93
2017-10-26T00:32:22.615Z,91.14
2017-10-26T00:34:50.329Z,90.77
2017-10-26T00:37:18.046Z,90.74
2017-10-26T00:39:45.768Z,91.02
2017-10-26T00:42:13.465Z,91.44
2017-10-26T00:44:41.188Z,91.16
2017-10-26T00:47:08.866Z,91.22
2017-10-26T00:49:36.575Z,90.95
2017-10-26T00:52:04.328Z,90.95
2017-10-26T00:54:32.012Z,91.08
2017-10-26T00:56:59.739Z,91.72
2017-10-26T00:59:27.465Z,91.13
2017-10-26T01:01:55.278Z,91.28
2017-10-26T01:04:22.963Z,91.63
2017-10-26T01:06:50.694Z,91.65
2017-10-26T01:09:18.371Z,91.57
2017-10-26T01:11:46.108Z,92.39
2017-10-26T01:14:14.021Z,92.59
2017-10-26T01:16:41.769Z,92.43
2017-10-26T01:19:09.548Z,92.74
2017-10-26T01:21:37.296Z,92.43
2017-10-26T01:24:05.917Z,91.87
2017-10-26T01:26:33.641Z,91.79
2017-10-26T01:29:01.393Z,92.17
2017-10-26T01:31:29.106Z,92.06
2017-10-26T01:33:56.910Z,92.08
2017-10-26T01:36:24.679Z,91.82
2017-10-26T01:38:52.440Z,91.40
2017-10-26T01:41:20.171Z,90.79
2017-10-26T01:43:47.943Z,91.43
2017-10-26T01:46:15.700Z,91.10
2017-10-26T01:48:43.411Z,91.62
2017-10-26T01:51:11.170Z,91.92
2017-10-26T01:53:38.978Z,92.11
2017-10-26T01:56:06.719Z,92.45
2017-10-26T01:58:34.479Z,92.66
2017-10-26T02:01:02.274Z,92.42
2017-10-26T02:03:30.007Z,92.77
2017-10-26T02:05:57.742Z,92.72
2017-10-26T02:08:25.523Z,92.78
2017-10-26T02:10:53.253Z,93.31
2017-10-26T02:13:21.038Z,93.54
2017-10-26T02:15:48.785Z,94.01
2017-10-26T02:18:16.516Z,93.88
2017-10-26T02:20:44.365Z,93.94
2017-10-26T02:23:12.082Z,93.39
2017-10-26T02:25:39.828Z,93.26
2017-10-26T02:28:07.635Z,93.78
2017-10-26T02:30:47.046Z,94.11
2017-10-26T02:33:14.810Z,93.99
2017-10-26T02:35:42.614Z,93.47
2017-10-26T02:38:10.362Z,93.62
2017-10-26T02:40:38.115Z,93.67
2017-10-26T02:43:05.865Z,93.81
2017-10-26T02:45:33.611Z,93.92
2017-10-26T02:48:01.378Z,93.72
2017-10-26T02:50:29.210Z,94.18
2017-10-26T02:52:56.912Z,94.92
2017-10-26T02:55:24.655Z,94.76
2017-10-26T02:57:52.494Z,94.76
2017-10-26T03:00:20.228Z,95.09
2017-10-26T03:02:48.042Z,95.04
2017-10-26T03:05:16.004Z,94.86
2017-10-26T03:07:43.741Z,94.61
2017-10-26T03:10:11.473Z,94.43
2017-10-26T03:12:39.184Z,94.04
2017-10-26T03:15:06.941Z,94.14
2017-10-26T03:17:34.645Z,94.69
2017-10-26T03:20:02.355Z,94.71
2017-10-26T03:22:30.122Z,95.14
2017-10-26T03:24:57.883Z,95.24
2017-10-26T03:27:25.576Z,95.29
2017-10-26T03:29:53.368Z,94.91
2017-10-26T03:32:21.072Z,94.85
2017-10-26T03:34:48.807Z,95.55
2017-10-26T03:37:16.489Z,95.38
2017-10-26T03:39:44.210Z,95.75
2017-10-26T03:42:11.968Z,95.79
2017-10-26T03:44:39.828Z,95.48
2017-10-26T03:47:07.551Z,94.87
2017-10-26T03:49:35.260Z,94.68
2017-10-26T03:52:03.111Z,94.60
2017-10-26T03:54:30.811Z,94.35
2017-10-26T03:56:58.522Z,94.87
2017-10-26T03:59:26.269Z,94.79
2017-10-26T04:01:54.014Z,94.60
2017-10-26T04:04:21.863Z,94.64
2017-10-26T04:06:49.607Z,94.49
2017-10-26T04:09:17.295Z,94.22
2017-10-26T04:11:45.047Z,93.96
2017-10-26T04:14:12.793Z,93.91
2017-10-26T04:16:40.565Z,93.85
2017-10-26T04:19:08.266Z,94.33
2017-10-26T04:21:36.015Z,94.30
2017-10-26T04:24:03.840Z,93.68
2017-10-26T04:26:31.579Z,93.20
2017-10-26T04:28:59.295Z,94.07
2017-10-26T04:31:27.180Z,93.96
2017-10-26T04:33:54.972Z,94.11
2017-10-26T04:36:22.739Z,94.04
2017-10-26T04:38:50.484Z,93.89
2017-10-26T04:41:18.227Z,93.94
2017-10-26T04:43:45.931Z,93.67
2017-10-26T04:46:13.621Z,93.40
2017-10-26T04:48:41.420Z,94.15
2017-10-26T04:51:09.168Z,94.19
2017-10-26T04:53:36.945Z,94.41
2017-10-26T04:56:04.640Z,94.06
2017-10-26T04:58:32.392Z,93.55
2017-10-26T05:01:00.151Z,93.86
2017-10-26T05:03:27.869Z,93.98
2017-10-26T05:05:56.444Z,94.29
2017-10-26T05:08:25.337Z,94.32
2017-10-26T05:10:53.040Z,94.57
2017-10-26T05:13:21.544Z,94.84
2017-10-26T05:15:49.260Z,94.77
2017-10-26T05:18:17.158Z,95.07
2017-10-26T05:20:44.999Z,95.06
2017-10-26T05:23:12.824Z,94.43
2017-10-26T05:25:40.544Z,94.47
2017-10-26T05:28:08.381Z,94.62
2017-10-26T05:30:36.108Z,94.41
2017-10-26T05:33:04.004Z,94.09
2017-10-26T05:35:31.834Z,93.98
2017-10-26T05:37:59.770Z,94.39
2017-10-26T05:40:27.772Z,95.05
2017-10-26T05:42:55.615Z,95.08
2017-10-26T05:45:23.607Z,95.33
2017-10-26T05:47:51.326Z,95.75
2017-10-26T05:50:19.095Z,95.82
2017-10-26T05:52:46.868Z,95.95
2017-10-26T05:55:14.667Z,96.72
2017-10-26T05:57:42.480Z,96.83
2017-10-26T06:00:10.366Z,97.07
2017-10-26T06:02:38.235Z,97.15
2017-10-26T06:05:06.015Z,97.10
2017-10-26T06:07:33.744Z,96.96
2017-10-26T06:10:01.633Z,96.80
2017-10-26T06:12:29.379Z,96.76
2017-10-26T06:14:57.137Z,96.49
2017-10-26T06:17:25.760Z,96.16
2017-10-26T06:19:53.612Z,95.86
2017-10-26T06:22:21.306Z,96.26
2017-10-26T06:24:49.083Z,96.33
2017-10-26T06:27:16.900Z,96.24
2017-10-26T06:29:44.614Z,96.23
2017-10-26T06:32:12.352Z,96.11
2017-10-26T06:34:40.141Z,95.76
2017-10-26T06:37:08.070Z,95.64
2017-10-26T06:39:35.857Z,95.61
2017-10-26T06:42:03.615Z,95.59
2017-10-26T06:44:31.338Z,95.53
2017-10-26T06:46:59.084Z,95.39
2017-10-26T06:49:26.840Z,94.92
2017-10-26T06:51:54.705Z,94.28
2017-10-26T06:54:23.141Z,95.19
2017-10-26T06:56:50.896Z,95.62
2017-10-26T06:59:18.660Z,95.30
2017-10-26T07:01:46.413Z,94.02
2017-10-26T07:04:14.256Z,93.98
2017-10-26T07:06:41.968Z,94.54
2017-10-26T07:09:10.934Z,95.46
2017-10-26T07:11:38.676Z,95.55
2017-10-26T07:14:06.484Z,95.32
2017-10-26T07:16:34.209Z,94.92
2017-10-26T07:19:02.221Z,94.73
2017-10-26T07:21:30.019Z,95.19
2017-10-26T07:23:57.907Z,95.32
2017-10-26T07:26:25.792Z,95.46
2017-10-26T07:28:53.603Z,95.60
2017-10-26T07:31:21.470Z,95.56
2017-10-26T07:33:49.260Z,95.44
2017-10-26T07:36:17.077Z,95.80
2017-10-26T07:38:44.862Z,95.90
2017-10-26T07:41:12.710Z,95.89
2017-10-26T07:43:41.283Z,96.00
2017-10-26T07:46:09.079Z,96.23
2017-10-26T07:48:36.841Z,96.34
2017-10-26T07:51:04.610Z,96.19
2017-10-26T07:53:32.380Z,95.95
2017-10-26T07:56:00.136Z,95.40
2017-10-26T07:58:27.946Z,94.98
2017-10-26T08:00:56.893Z,95.04
2017-10-26T08:03:24.665Z,94.97
2017-10-26T08:05:52.553Z,94.84
2017-10-26T08:08:20.308Z,94.07
2017-10-26T08:10:48.079Z,93.71
2017-10-26T08:13:15.817Z,93.98
2017-10-26T08:15:43.600Z,94.74
2017-10-26T08:18:11.364Z,94.96
2017-10-26T08:20:39.204Z,94.32
2017-10-26T08:23:07.045Z,93.95
2017-10-26T08:25:34.791Z,93.72
2017-10-26T08:28:02.653Z,94.11
2017-10-26T08:30:31.384Z,93.72
2017-10-26T08:32:59.182Z,93.18
2017-10-26T08:35:26.968Z,92.52
2017-10-26T08:37:55.862Z,93.44
2017-10-26T08:40:23.577Z,93.39
2017-10-26T08:42:51.355Z,92.42
2017-10-26T08:45:19.378Z,91.38
2017-10-26T08:47:47.101Z,91.25
2017-10-26T08:50:14.984Z,91.43
2017-10-26T08:52:42.829Z,90.70
2017-10-26T08:55:10.676Z,90.31
2017-10-26T08:57:38.493Z,90.66
2017-10-26T09:00:06.324Z,90.34
2017-10-26T09:02:34.035Z,88.83
2017-10-26T09:05:01.831Z,89.91
2017-10-26T09:07:29.690Z,89.15
2017-10-26T09:09:57.474Z,88.64
2017-10-26T09:12:25.320Z,88.84
2017-10-26T09:14:53.245Z,87.48
2017-10-26T09:17:21.238Z,87.70
2017-10-26T09:19:49.144Z,87.25
2017-10-26T09:22:18.178Z,87.68
2017-10-26T09:24:46.683Z,87.93
2017-10-26T09:27:14.571Z,86.56
2017-10-26T09:29:42.420Z,85.20
2017-10-26T09:32:10.613Z,84.20
2017-10-26T09:34:38.427Z,84.08
2017-10-26T09:37:06.238Z,82.82
2017-10-26T09:39:34.018Z,83.74
2017-10-26T09:42:01.874Z,84.86
2017-10-26T09:44:29.691Z,84.04
2017-10-26T09:46:57.559Z,82.27
2017-10-26T09:49:25.378Z,81.29
2017-10-26T09:51:53.114Z,80.33
2017-10-26T09:54:20.926Z,79.01
2017-10-26T09:56:48.873Z,78.05
2017-10-26T09:59:16.709Z,79.89
2017-10-26T10:01:44.467Z,81.51
2017-10-26T10:04:12.282Z,80.71
2017-10-26T10:06:40.067Z,83.57
2017-10-26T10:09:07.974Z,83.87
2017-10-26T10:11:35.720Z,83.94
2017-10-26T10:14:03.517Z,81.96
2017-10-26T10:16:31.283Z,79.47
2017-10-26T10:18:59.055Z,80.26
2017-10-26T10:21:26.845Z,81.59
2017-10-26T10:23:54.598Z,81.45
2017-10-26T10:26:22.398Z,80.78
2017-10-26T10:28:50.975Z,80.86
2017-10-26T10:31:18.751Z,79.07
2017-10-26T10:33:46.624Z,78.05
2017-10-26T10:36:14.414Z,78.60
2017-10-26T10:38:42.273Z,75.18
2017-10-26T10:41:10.128Z,77.82
2017-10-26T10:43:38.012Z,75.87
2017-10-26T10:46:05.920Z,75.10
2017-10-26T10:48:33.773Z,71.79
2017-10-26T10:51:01.624Z,71.88
2017-10-26T10:53:29.409Z,71.70
2017-10-26T10:55:57.235Z,71.13
2017-10-26T10:58:25.111Z,74.04
2017-10-26T11:00:52.887Z,75.60
2017-10-26T11:03:20.723Z,74.29
2017-10-26T11:05:48.601Z,72.91
2017-10-26T11:08:16.473Z,74.14
2017-10-26T11:10:44.591Z,73.20
2017-10-26T11:13:12.463Z,75.56
2017-10-26T11:15:40.265Z,72.98
2017-10-26T11:18:08.071Z,74.48
2017-10-26T11:20:36.847Z,72.69
2017-10-26T11:23:05.841Z,71.65
2017-10-26T11:25:33.621Z,72.83
2017-10-26T11:28:01.526Z,69.95
2017-10-26T11:30:30.570Z,70.89
2017-10-26T11:32:58.367Z,71.34
2017-10-26T11:35:26.216Z,70.67
2017-10-26T11:37:54.021Z,71.45
2017-10-26T11:40:21.884Z,73.15
2017-10-26T11:42:49.783Z,72.86
2017-10-26T11:45:18.453Z,74.46
2017-10-26T11:47:46.344Z,75.19
2017-10-26T11:50:14.187Z,75.64
2017-10-26T11:52:43.153Z,75.34
2017-10-26T11:55:12.396Z,75.97
2017-10-26T12:00:14.275Z,74.53
2017-10-26T12:02:42.148Z,74.92
2017-10-26T12:05:09.960Z,74.70
2017-10-26T12:07:37.760Z,72.56
2017-10-26T12:10:05.579Z,72.95
2017-10-26T12:12:33.418Z,71.86
2017-10-26T12:15:01.202Z,72.53
2017-10-26T12:17:29.856Z,71.25
2017-10-26T12:19:57.689Z,70.73
2017-10-26T12:22:25.531Z,71.54
2017-10-26T12:24:53.320Z,71.16
2017-10-26T12:27:21.151Z,71.64
2017-10-26T12:29:48.898Z,71.77
2017-10-26T12:32:16.627Z,72.05
2017-10-26T12:34:44.454Z,72.06
2017-10-26T12:37:12.276Z,71.82
2017-10-26T12:39:40.141Z,71.19
2017-10-26T12:42:07.973Z,71.99
2017-10-26T12:44:36.105Z,72.38
2017-10-26T12:47:03.897Z,72.55
2017-10-26T12:49:31.657Z,72.19
2017-10-26T12:51:59.490Z,71.47
2017-10-26T12:54:27.297Z,72.74
2017-10-26T12:56:55.061Z,73.94
2017-10-26T12:59:22.887Z,74.57
2017-10-26T13:01:50.661Z,73.56
2017-10-26T13:04:18.596Z,72.75
2017-10-26T13:06:46.393Z,72.35
2017-10-26T13:09:14.183Z,72.34
2017-10-26T13:11:41.952Z,73.55
2017-10-26T13:14:09.813Z,72.86
2017-10-26T13:16:38.532Z,73.59
2017-10-26T13:19:06.357Z,75.14
2017-10-26T13:21:34.238Z,75.54
2017-10-26T13:24:02.073Z,76.12
2017-10-26T13:26:29.937Z,76.82
2017-10-26T13:28:57.671Z,76.61
2017-10-26T13:31:26.119Z,76.70
2017-10-26T13:33:53.853Z,76.01
2017-10-26T13:36:21.617Z,78.25
2017-10-26T13:38:49.399Z,76.73
2017-10-26T13:41:17.147Z,75.37
2017-10-26T13:43:46.186Z,74.28
2017-10-26T13:46:13.927Z,72.86
2017-10-26T13:48:41.697Z,72.45
2017-10-26T13:51:09.438Z,72.54
2017-10-26T13:53:37.181Z,72.31
2017-10-26T13:56:04.989Z,73.19
2017-10-26T13:58:32.762Z,73.07
2017-10-26T14:01:00.645Z,71.38
2017-10-26T14:03:28.470Z,73.58
2017-10-26T14:05:56.269Z,73.13
2017-10-26T14:08:24.012Z,73.52
2017-10-26T14:10:51.811Z,73.95
2017-10-26T14:13:19.599Z,74.20
2017-10-26T14:15:47.384Z,73.83
2017-10-26T14:18:15.159Z,74.96
2017-10-26T14:20:42.899Z,74.55
2017-10-26T14:23:10.728Z,75.23
2017-10-26T14:25:39.491Z,74.69
2017-10-26T14:28:07.172Z,74.81
2017-10-26T14:30:34.984Z,74.45
2017-10-26T14:33:02.696Z,74.65
2017-10-26T14:35:30.487Z,76.49
2017-10-26T14:37:58.210Z,76.37
2017-10-26T14:40:26.040Z,76.33
2017-10-26T14:42:53.890Z,77.38
2017-10-26T14:45:21.960Z,77.26
2017-10-26T14:47:49.740Z,78.03
2017-10-26T14:50:17.464Z,78.86
2017-10-26T14:52:45.353Z,79.87
2017-10-26T14:55:13.171Z,80.29
2017-10-26T14:57:40.980Z,81.01
2017-10-26T15:00:08.783Z,81.55
2017-10-26T15:02:36.588Z,82.16
2017-10-26T15:05:04.376Z,82.21
2017-10-26T15:07:33.054Z,82.27
2017-10-26T15:10:01.051Z,82.22
2017-10-26T15:12:29.690Z,82.04
2017-10-26T15:14:57.532Z,82.65
2017-10-26T15:17:25.310Z,83.24
2017-10-26T15:19:53.085Z,83.65
2017-10-26T15:22:20.785Z,82.95
2017-10-26T15:24:48.704Z,83.80
2017-10-26T15:27:16.570Z,83.35
2017-10-26T15:29:44.343Z,83.73
2017-10-26T15:32:12.275Z,83.46
2017-10-26T15:34:40.070Z,84.30
2017-10-26T15:37:07.826Z,83.89
2017-10-26T15:39:35.634Z,84.13
2017-10-26T15:42:03.594Z,83.97
2017-10-26T15:44:31.337Z,84.57
2017-10-26T15:46:59.069Z,84.19
2017-10-26T15:49:26.881Z,85.27
2017-10-26T15:51:54.597Z,85.76
2017-10-26T15:54:22.311Z,86.37
2017-10-26T15:56:50.056Z,85.92
2017-10-26T15:59:17.860Z,86.08
2017-10-26T16:01:45.684Z,85.49
2017-10-26T16:04:13.489Z,86.24
2017-10-26T16:06:41.264Z,86.17
2017-10-26T16:09:09.089Z,85.81
2017-10-26T16:11:36.835Z,85.93
2017-10-26T16:14:04.710Z,86.29
2017-10-26T16:16:33.429Z,85.65
2017-10-26T16:19:01.258Z,85.96
2017-10-26T16:21:29.076Z,86.33
2017-10-26T16:23:56.772Z,86.65
2017-10-26T16:26:25.601Z,86.70
2017-10-26T16:28:53.347Z,87.17
2017-10-26T16:31:21.131Z,87.12
2017-10-26T16:33:48.943Z,86.88
2017-10-26T16:36:17.614Z,86.67
2017-10-26T16:38:45.372Z,86.59
2017-10-26T16:41:13.163Z,86.51
2017-10-26T16:43:40.940Z,86.97
2017-10-26T16:46:09.006Z,87.36
2017-10-26T16:48:36.847Z,86.93
2017-10-26T16:51:04.617Z,86.34
2017-10-26T16:53:32.381Z,86.69
2017-10-26T16:56:00.197Z,87.56
2017-10-26T16:58:27.993Z,87.37
2017-10-26T17:00:55.861Z,87.00
2017-10-26T17:03:23.640Z,86.66
2017-10-26T17:05:51.425Z,86.86
2017-10-26T17:08:19.444Z,86.46
2017-10-26T17:10:47.167Z,87.35
2017-10-26T17:13:14.951Z,87.67
2017-10-26T17:15:42.672Z,87.89
2017-10-26T17:18:10.386Z,87.37
2017-10-26T17:20:38.237Z,87.79
2017-10-26T17:23:05.933Z,87.92
2017-10-26T17:25:33.721Z,87.81
2017-10-26T17:28:01.507Z,87.85
2017-10-26T17:30:29.266Z,88.56
2017-10-26T17:32:57.090Z,88.05
2017-10-26T17:35:24.935Z,87.44
2017-10-26T17:37:52.642Z,87.60
2017-10-26T17:40:20.435Z,87.70
2017-10-26T17:42:48.244Z,87.69
2017-10-26T17:45:15.964Z,88.35
2017-10-26T17:47:43.754Z,88.47
2017-10-26T17:50:11.474Z,87.47
2017-10-26T17:52:39.252Z,87.65
2017-10-26T17:55:06.973Z,87.59
2017-10-26T17:57:34.758Z,87.14
2017-10-26T18:00:02.508Z,87.68
2017-10-26T18:02:30.308Z,88.46
2017-10-26T18:04:58.109Z,88.40
2017-10-26T18:07:25.897Z,88.66
2017-10-26T18:09:54.092Z,88.63
2017-10-26T18:12:21.922Z,88.44
2017-10-26T18:14:49.720Z,89.13
2017-10-26T18:17:17.564Z,88.79
2017-10-26T18:19:45.278Z,90.00
2017-10-26T18:22:13.080Z,89.03
2017-10-26T18:24:40.844Z,88.86
2017-10-26T18:27:08.929Z,89.63
2017-10-26T18:29:36.681Z,89.51
2017-10-26T18:32:04.471Z,89.50
2017-10-26T18:34:32.313Z,89.51
2017-10-26T18:37:00.014Z,89.83
2017-10-26T18:39:27.720Z,89.86
2017-10-26T18:41:55.604Z,89.95
2017-10-26T18:44:23.348Z,89.54
2017-10-26T18:46:51.200Z,88.98
2017-10-26T18:49:18.999Z,89.04
2017-10-26T18:51:46.688Z,89.04
2017-10-26T18:54:15.240Z,89.25
2017-10-26T18:56:42.968Z,90.11
2017-10-26T18:59:10.732Z,89.60
2017-10-26T19:01:38.470Z,89.66
2017-10-26T19:04:06.260Z,89.13
2017-10-26T19:06:34.090Z,89.51
2017-10-26T19:09:01.959Z,89.63
2017-10-26T19:11:29.737Z,89.71
2017-10-26T19:13:57.489Z,90.11
2017-10-26T19:16:25.242Z,89.71
2017-10-26T19:18:53.016Z,89.51
2017-10-26T19:21:21.294Z,89.49
2017-10-26T19:23:49.824Z,89.72
2017-10-26T19:26:17.589Z,89.94
2017-10-26T19:28:45.377Z,89.75
2017-10-26T19:31:13.147Z,90.05
2017-10-26T19:33:41.424Z,89.69
2017-10-26T19:36:09.170Z,89.36
2017-10-26T19:38:37.031Z,90.11
2017-10-26T19:41:04.834Z,91.22
2017-10-26T19:43:32.603Z,90.69
2017-10-26T19:46:00.309Z,91.11
2017-10-26T19:48:28.054Z,90.89
2017-10-26T19:50:55.964Z,91.21
2017-10-26T19:53:23.767Z,90.78
2017-10-26T19:55:51.545Z,90.66
2017-10-26T19:58:19.357Z,90.44
2017-10-26T20:00:47.176Z,91.12
2017-10-26T20:03:14.977Z,91.05
2017-10-26T20:05:42.724Z,90.49
2017-10-26T20:08:10.467Z,91.17
2017-10-26T20:10:38.351Z,91.14
2017-10-26T20:13:06.108Z,90.79
2017-10-26T20:15:33.944Z,90.66
2017-10-26T20:18:01.685Z,90.53
2017-10-26T20:20:29.456Z,90.84
2017-10-26T20:22:57.234Z,90.89
2017-10-26T20:25:24.960Z,91.19
2017-10-26T20:27:52.773Z,91.08
2017-10-26T20:30:20.518Z,90.94
2017-10-26T20:32:48.284Z,90.71
2017-10-26T20:35:16.003Z,90.70
2017-10-26T20:37:43.772Z,90.48
2017-10-26T20:40:11.525Z,89.82
2017-10-26T20:42:39.195Z,90.18
2017-10-26T20:45:07.063Z,90.40
2017-10-26T20:47:34.744Z,90.22
2017-10-26T20:50:07.926Z,90.03
2017-10-26T20:52:42.020Z,90.33
2017-10-26T20:55:15.342Z,90.43
2017-10-26T21:00:54.462Z,90.71
2017-10-26T21:03:43.069Z,90.65
2017-10-26T21:06:20.021Z,90.49
2017-10-26T21:08:53.298Z,90.57
2017-10-26T21:11:26.692Z,90.94
2017-10-26T21:14:00.055Z,90.76
2017-10-26T21:16:27.877Z,91.23
2017-10-26T21:18:55.573Z,91.66
2017-10-26T21:21:23.265Z,91.38
2017-10-26T21:23:51.015Z,91.27
2017-10-26T21:26:18.863Z,90.79
2017-10-26T21:28:46.626Z,90.63
2017-10-26T21:31:14.367Z,90.13
2017-10-26T21:33:47.697Z,90.30
2017-10-26T21:36:15.673Z,90.14
2017-10-26T21:38:43.420Z,90.24
2017-10-26T21:41:11.164Z,90.48
2017-10-26T21:43:39.019Z,90.27
2017-10-26T21:46:06.738Z,91.14
2017-10-26T21:48:34.493Z,90.94
2017-10-26T21:51:02.244Z,91.11
2017-10-26T21:53:29.969Z,91.29
2017-10-26T21:55:57.785Z,91.13
2017-10-26T21:58:25.543Z,90.81
2017-10-26T22:00:54.147Z,91.53
2017-10-26T22:03:22.005Z,90.87
2017-10-26T22:05:49.709Z,91.04
2017-10-26T22:08:17.442Z,91.91
2017-10-26T22:10:45.239Z,91.59
2017-10-26T22:13:12.997Z,91.49
2017-10-26T22:15:40.744Z,91.49
2017-10-26T22:18:08.511Z,91.34
2017-10-26T22:20:36.194Z,91.38
2017-10-26T22:23:03.976Z,91.52
2017-10-26T22:25:31.709Z,91.23
2017-10-26T22:27:59.457Z,91.94
2017-10-26T22:30:27.184Z,91.49
2017-10-26T22:32:54.908Z,91.02
2017-10-26T22:35:22.626Z,91.54
2017-10-26T22:37:50.387Z,91.81
2017-10-26T22:40:18.136Z,91.52
2017-10-26T22:42:45.864Z,91.75
2017-10-26T22:45:13.593Z,92.32
2017-10-26T22:47:41.349Z,92.37
2017-10-26T22:50:09.101Z,92.33
2017-10-26T22:52:36.893Z,92.35
2017-10-26T22:55:04.578Z,92.58
2017-10-26T22:57:32.308Z,92.67
2017-10-26T23:00:00.037Z,92.06
2017-10-26T23:02:27.862Z,91.84
2017-10-26T23:04:55.636Z,91.88
2017-10-26T23:07:23.413Z,91.51
2017-10-26T23:09:51.186Z,91.78
2017-10-26T23:12:19.067Z,91.90
2017-10-26T23:14:46.824Z,91.74
2017-10-26T23:17:14.717Z,92.01
2017-10-26T23:19:42.467Z,92.14
2017-10-26T23:22:10.242Z,92.28
2017-10-26T23:24:38.025Z,92.30
2017-10-26T23:27:05.744Z,92.41
2017-10-26T23:29:33.497Z,92.87
2017-10-26T23:32:01.195Z,92.56
2017-10-26T23:34:29.239Z,92.24
2017-10-26T23:36:56.959Z,92.67
2017-10-26T23:39:24.726Z,92.20
2017-10-26T23:41:52.455Z,92.35
2017-10-26T23:44:20.203Z,92.66
2017-10-26T23:46:47.958Z,92.55
2017-10-26T23:49:15.673Z,93.08
2017-10-26T23:51:43.399Z,93.00
2017-10-26T23:54:11.109Z,92.53
2017-10-26T23:56:38.936Z,92.29
2017-10-26T23:59:06.670Z,92.50
